Terminal Aerodrome Forecast
Issued by NWS Louisville, KY

Home | Current Version | Previous Version | Text Only | Print | Product List | Glossary On
Versions: 1 2 3 4 5 6 7 8 9 10 11 12 13 14 15 16 17 18 19 20 21 22 23 24
000
FTUS43 KLMK 271731
TAFBWG
TAF
KBWG 271731Z 2718/2818 20012KT P6SM SCT040 BKN250
     FM280000 17006KT P6SM SCT150 BKN250
     FM281500 19012KT P6SM VCSH SCT040 BKN120=

USA.gov is the U.S. government's official web portal to all federal, state and local government web resources and services.